Time;durP1;ratioP1;P1;durP2;ratioP2;P2;SDS_P1;SDS_P2;PMS_P1;PMS_P2;Temp;Humidity;BMP_temperature;BMP_pressure;BME280_temperature;BME280_humidity;BME280_pressure;Samples;Min_cycle;Max_cycle;Signal;HPM_P1;HPM_P2
2020/12/11 00:02:06;;;;;;;11.45;5.25;;;;;;;6.87;100.00;98415.69;6138849;23;20020;-77
2020/12/11 00:04:31;;;;;;;12.00;5.78;;;;;;;6.88;100.00;98428.34;6163897;23;20434;-77
2020/12/11 00:06:57;;;;;;;9.98;5.03;;;;;;;6.88;100.00;98428.34;6138693;23;20009;-77
2020/12/11 00:09:24;;;;;;;10.63;5.70;;;;;;;6.88;100.00;98422.84;6090133;23;20009;-78
2020/12/11 00:11:52;;;;;;;9.75;5.72;;;;;;;6.89;100.00;98421.69;6138880;23;20004;-77
2020/12/11 00:14:18;;;;;;;8.80;4.88;;;;;;;6.89;100.00;98418.13;6163301;23;20088;-77
2020/12/11 00:16:44;;;;;;;9.07;4.90;;;;;;;6.91;100.00;98419.44;6138707;23;20019;-77
2020/12/11 00:19:10;;;;;;;11.38;4.65;;;;;;;6.94;100.00;98417.97;6138422;23;20008;-77
2020/12/11 00:21:42;;;;;;;11.95;5.70;;;;;;;6.92;100.00;98407.25;6114694;23;20430;-77
2020/12/11 00:24:09;;;;;;;12.48;5.78;;;;;;;6.92;100.00;98404.50;6138828;23;20001;-77
2020/12/11 00:26:34;;;;;;;9.10;5.40;;;;;;;6.91;100.00;98391.84;6138078;23;20024;-77
2020/12/11 00:29:00;;;;;;;9.65;4.90;;;;;;;6.93;100.00;98388.75;6163302;23;20008;-77
2020/12/11 00:31:26;;;;;;;8.88;4.95;;;;;;;6.92;100.00;98387.94;6137815;23;20045;-77
2020/12/11 00:33:52;;;;;;;8.55;4.75;;;;;;;6.93;100.00;98389.56;6138991;23;20016;-77
2020/12/11 00:36:17;;;;;;;6.35;4.60;;;;;;;6.94;100.00;98388.44;6138712;23;20005;-77
2020/12/11 00:38:43;;;;;;;8.98;5.22;;;;;;;6.94;100.00;98366.34;6138561;23;20415;-77
2020/12/11 00:41:09;;;;;;;9.52;5.03;;;;;;;6.96;100.00;98348.66;6189208;23;20005;-77
2020/12/11 00:43:35;;;;;;;9.18;4.45;;;;;;;6.97;100.00;98330.97;6138940;23;20012;-77
2020/12/11 00:46:01;;;;;;;8.07;4.32;;;;;;;6.97;100.00;98319.94;6140258;23;20005;-77
2020/12/11 00:48:26;;;;;;;6.50;3.95;;;;;;;6.98;100.00;98314.09;6139991;23;20423;-77
2020/12/11 00:50:52;;;;;;;7.10;3.80;;;;;;;6.98;100.00;98308.56;6140659;23;20016;-77
2020/12/11 00:53:17;;;;;;;5.20;3.55;;;;;;;6.98;100.00;98305.00;6165349;23;20016;-77
2020/12/11 00:55:43;;;;;;;4.90;3.30;;;;;;;6.98;100.00;98305.00;6139980;23;20005;-77
2020/12/11 00:58:09;;;;;;;6.32;3.60;;;;;;;6.99;100.00;98296.38;6189765;23;20025;-77
2020/12/11 01:00:34;;;;;;;4.57;3.20;;;;;;;6.99;100.00;98273.50;6140299;23;20016;-77
2020/12/11 01:03:00;;;;;;;5.05;3.70;;;;;;;6.99;100.00;98273.50;6191119;23;20446;-77
2020/12/11 01:05:25;;;;;;;7.15;3.58;;;;;;;6.99;100.00;98254.19;6164517;23;20005;-76
2020/12/11 01:07:51;;;;;;;6.40;3.75;;;;;;;6.99;100.00;98245.91;6164902;23;20017;-77
2020/12/11 01:10:17;;;;;;;6.57;3.50;;;;;;;6.99;100.00;98232.91;6164646;23;20013;-77
2020/12/11 01:12:42;;;;;;;5.15;3.30;;;;;;;7.00;100.00;98236.50;6165041;23;20430;-77
2020/12/11 01:15:08;;;;;;;6.00;3.50;;;;;;;7.00;100.00;98233.75;6164886;23;20009;-76
2020/12/11 01:17:33;;;;;;;7.88;3.20;;;;;;;7.01;100.00;98243.63;6164379;23;20013;-77
2020/12/11 01:19:59;;;;;;;6.82;3.38;;;;;;;7.02;100.00;98239.72;6140307;23;20012;-77
2020/12/11 01:22:24;;;;;;;4.50;3.00;;;;;;;7.03;100.00;98227.56;6140699;23;20430;-77
2020/12/11 01:24:50;;;;;;;3.50;2.88;;;;;;;7.02;100.00;98223.16;6115255;23;20009;-77
2020/12/11 01:27:15;;;;;;;4.50;2.90;;;;;;;7.02;100.00;98212.97;6139976;23;20024;-77
2020/12/11 01:29:41;;;;;;;4.72;3.10;;;;;;;7.02;100.00;98206.59;6140199;23;20009;-77
2020/12/11 01:32:07;;;;;;;4.88;2.50;;;;;;;7.06;100.00;98202.06;6139329;23;20009;-77
2020/12/11 01:34:32;;;;;;;4.63;2.97;;;;;;;7.03;100.00;98200.78;6115616;23;20016;-77
2020/12/11 01:37:04;;;;;;;4.57;2.70;;;;;;;7.05;100.00;98197.66;6189542;23;20012;-77
2020/12/11 01:39:30;;;;;;;3.80;2.25;;;;;;;7.05;100.00;98178.34;6091352;23;20035;-77
2020/12/11 01:41:56;;;;;;;4.90;2.88;;;;;;;7.06;100.00;98180.00;6116173;23;20418;-77
2020/12/11 01:44:21;;;;;;;3.90;2.70;;;;;;;7.08;100.00;98186.00;6115679;23;20013;-77
2020/12/11 01:46:48;;;;;;;4.72;3.22;;;;;;;7.07;100.00;98187.94;6115289;23;20001;-76
2020/12/11 01:49:13;;;;;;;5.55;3.05;;;;;;;7.09;100.00;98193.13;6115571;23;20009;-76
2020/12/11 01:51:39;;;;;;;5.43;3.00;;;;;;;7.09;100.00;98195.88;6140265;23;20017;-76
2020/12/11 01:54:04;;;;;;;7.38;3.15;;;;;;;7.08;100.00;98186.00;6115265;23;20008;-76
2020/12/11 01:56:33;;;;;;;3.67;2.60;;;;;;;7.10;100.00;98180.94;6164121;23;20013;-76
2020/12/11 01:59:05;;;;;;;4.55;2.70;;;;;;;7.11;100.00;98177.06;6139747;23;20009;-76
2020/12/11 02:01:31;;;;;;;6.38;3.03;;;;;;;7.12;100.00;98179.47;6140635;23;20013;-77
2020/12/11 02:03:57;;;;;;;5.10;3.05;;;;;;;7.11;100.00;98174.31;6115521;23;20329;-76
2020/12/11 02:06:23;;;;;;;5.45;2.80;;;;;;;7.13;100.00;98185.81;6164185;23;20015;-77
2020/12/11 02:08:48;;;;;;;3.63;2.45;;;;;;;7.12;100.00;98178.66;6164459;23;20427;-76
2020/12/11 02:11:20;;;;;;;5.50;2.85;;;;;;;7.14;100.00;98176.41;6139776;23;20031;-77
2020/12/11 02:13:46;;;;;;;4.05;2.90;;;;;;;7.13;100.00;98183.03;6164374;23;20015;-76
2020/12/11 02:16:12;;;;;;;3.47;2.92;;;;;;;7.15;100.00;98183.53;6190266;23;20009;-76
2020/12/11 02:18:39;;;;;;;3.95;2.90;;;;;;;7.14;100.00;98185.50;6139464;23;20009;-76
2020/12/11 02:21:05;;;;;;;4.35;3.13;;;;;;;7.15;100.00;98186.28;6190903;23;20315;-76
2020/12/11 02:23:30;;;;;;;4.43;3.40;;;;;;;7.17;100.00;98175.75;6190515;23;20008;-77
2020/12/11 02:25:56;;;;;;;5.55;3.28;;;;;;;7.16;100.00;98176.91;6189269;23;20020;-77
2020/12/11 02:28:21;;;;;;;4.55;3.55;;;;;;;7.15;100.00;98161.44;6164029;23;20438;-76
2020/12/11 02:30:47;;;;;;;4.93;2.90;;;;;;;7.15;100.00;98166.97;6114832;23;20040;-77
2020/12/11 02:33:13;;;;;;;4.20;3.20;;;;;;;7.17;100.00;98167.47;6139295;23;20006;-76
2020/12/11 02:35:41;;;;;;;4.85;2.80;;;;;;;7.16;100.00;98158.38;6163814;23;20079;-77
2020/12/11 02:38:09;;;;;;;7.03;3.13;;;;;;;7.17;100.00;98128.81;6190100;23;20005;-77
2020/12/11 02:40:38;;;;;;;5.38;3.30;;;;;;;7.16;100.00;98127.22;6189995;23;20009;-77
2020/12/11 02:43:04;;;;;;;4.07;2.97;;;;;;;7.16;100.00;98125.25;6091962;23;20032;-77
2020/12/11 02:45:29;;;;;;;5.75;3.33;;;;;;;7.16;100.00;98130.78;6189772;23;20378;-77
2020/12/11 02:47:55;;;;;;;3.53;3.20;;;;;;;7.18;100.00;98138.72;6163617;23;20377;-77
2020/12/11 02:50:20;;;;;;;3.75;3.28;;;;;;;7.17;100.00;98150.91;6139484;23;20016;-77
2020/12/11 02:52:46;;;;;;;4.53;3.28;;;;;;;7.16;100.00;98141.81;6115323;23;20009;-77
2020/12/11 02:55:13;;;;;;;3.80;2.88;;;;;;;7.17;100.00;98148.13;6114285;23;20013;-77
2020/12/11 02:57:39;;;;;;;4.65;3.45;;;;;;;7.18;100.00;98155.28;6140015;23;20080;-77
2020/12/11 03:00:04;;;;;;;3.95;3.28;;;;;;;7.17;100.00;98153.66;6091025;23;20016;-77
2020/12/11 03:02:30;;;;;;;3.90;3.05;;;;;;;7.18;100.00;98158.03;6139496;23;20013;-76
2020/12/11 03:04:55;;;;;;;4.22;3.28;;;;;;;7.18;100.00;98149.75;6114268;23;20008;-77
2020/12/11 03:07:21;;;;;;;6.72;3.63;;;;;;;7.19;100.00;98140.34;6138825;23;20012;-77
2020/12/11 03:09:46;;;;;;;4.90;3.00;;;;;;;7.18;100.00;98135.94;6114312;23;20020;-77
2020/12/11 03:12:12;;;;;;;5.32;3.25;;;;;;;7.20;100.00;98133.69;6115067;23;20009;-77
2020/12/11 03:14:37;;;;;;;3.92;3.10;;;;;;;7.21;100.00;98128.97;6114992;23;20005;-77
2020/12/11 03:17:03;;;;;;;4.00;3.13;;;;;;;7.20;100.00;98125.41;6113814;23;20013;-77
2020/12/11 03:19:29;;;;;;;7.10;3.33;;;;;;;7.21;100.00;98118.72;6091065;23;20009;-77
2020/12/11 03:21:54;;;;;;;4.50;3.28;;;;;;;7.22;100.00;98114.03;6139195;23;20338;-76
2020/12/11 03:24:20;;;;;;;4.97;2.88;;;;;;;7.22;100.00;98114.03;6114178;23;20009;-77
2020/12/11 03:26:45;;;;;;;4.80;3.50;;;;;;;7.21;100.00;98110.44;6114289;23;20021;-76
2020/12/11 03:29:11;;;;;;;4.65;3.35;;;;;;;7.23;100.00;98121.16;6163942;23;20068;-77
2020/12/11 03:31:36;;;;;;;3.92;3.20;;;;;;;7.22;100.00;98114.84;6163248;23;20009;-77
2020/12/11 03:34:02;;;;;;;3.97;3.08;;;;;;;7.23;100.00;98102.66;6162818;23;20038;-77
2020/12/11 03:36:27;;;;;;;6.57;3.40;;;;;;;7.24;100.00;98092.41;6163411;23;20009;-77
2020/12/11 03:38:53;;;;;;;4.28;3.53;;;;;;;7.25;100.00;98121.66;6138755;23;20005;-77
2020/12/11 03:41:19;;;;;;;4.85;3.40;;;;;;;7.25;100.00;98116.13;6188604;23;20009;-77
2020/12/11 03:43:44;;;;;;;4.22;3.10;;;;;;;7.24;100.00;98106.22;6138998;23;20327;-77
2020/12/11 03:46:20;;;;;;;5.00;3.33;;;;;;;7.24;100.00;98107.00;6138485;23;20012;-76
2020/12/11 03:48:47;;;;;;;4.28;3.05;;;;;;;7.25;100.00;98094.84;6091044;23;20033;-77
2020/12/11 03:51:19;;;;;;;4.53;3.10;;;;;;;7.23;100.00;98091.59;6163696;23;20017;-77
2020/12/11 03:53:45;;;;;;;3.08;2.38;;;;;;;7.24;100.00;98103.44;6189393;23;20009;-77
2020/12/11 03:56:14;;;;;;;3.70;2.80;;;;;;;7.23;100.00;98094.38;6114014;23;20012;-76
2020/12/11 03:58:40;;;;;;;3.72;3.15;;;;;;;7.24;100.00;98090.44;6114707;23;20032;-77
2020/12/11 04:01:11;;;;;;;3.33;2.70;;;;;;;7.23;100.00;98086.09;6114503;23;20009;-77
2020/12/11 04:03:36;;;;;;;4.25;2.70;;;;;;;7.24;100.00;98086.88;6090742;23;20016;-77
2020/12/11 04:06:06;;;;;;;3.00;2.50;;;;;;;7.24;100.00;98086.88;6163270;23;20009;-77
2020/12/11 04:08:31;;;;;;;6.53;3.15;;;;;;;7.22;100.00;98083.66;6114670;23;20008;-77
2020/12/11 04:10:57;;;;;;;2.95;2.65;;;;;;;7.22;100.00;98084.47;6114227;23;20044;-77
2020/12/11 04:13:22;;;;;;;3.83;2.60;;;;;;;7.22;100.00;98072.63;6114751;23;20005;-77
2020/12/11 04:15:48;;;;;;;4.28;3.00;;;;;;;7.20;100.00;98081.22;6114650;23;20001;-77
2020/12/11 04:18:13;;;;;;;3.50;2.70;;;;;;;7.21;100.00;98098.59;6138441;23;20052;-77
2020/12/11 04:20:39;;;;;;;4.05;3.15;;;;;;;7.20;100.00;98088.69;6115666;23;20005;-77
2020/12/11 04:23:04;;;;;;;4.25;3.45;;;;;;;7.17;100.00;98092.94;6140858;23;20005;-77
2020/12/11 04:25:30;;;;;;;5.05;3.38;;;;;;;7.15;100.00;98095.19;6116253;23;20017;-77
2020/12/11 04:27:55;;;;;;;6.60;3.88;;;;;;;7.14;100.00;98088.06;6115881;23;20020;-77
2020/12/11 04:30:21;;;;;;;6.43;4.57;;;;;;;7.13;100.00;98094.72;6191057;23;20009;-76
2020/12/11 04:32:46;;;;;;;4.68;3.83;;;;;;;7.10;100.00;98081.56;6140229;23;20434;-77
2020/12/11 04:35:12;;;;;;;6.50;4.68;;;;;;;7.10;100.00;98092.63;6165187;23;20012;-77
2020/12/11 04:37:37;;;;;;;5.88;4.60;;;;;;;7.08;100.00;98086.63;6140701;23;20009;-77
2020/12/11 04:40:03;;;;;;;5.97;4.75;;;;;;;7.07;100.00;98088.56;6189689;23;20442;-77
2020/12/11 04:42:28;;;;;;;6.85;4.95;;;;;;;7.05;100.00;98085.34;6141002;23;20322;-77
2020/12/11 04:44:54;;;;;;;7.13;4.60;;;;;;;7.05;100.00;98095.56;6140547;23;20009;-76
2020/12/11 04:47:20;;;;;;;5.93;5.03;;;;;;;7.03;100.00;98081.28;6164198;23;20013;-77
2020/12/11 04:49:47;;;;;;;6.47;4.78;;;;;;;7.03;100.00;98082.09;6140774;23;20001;-76
2020/12/11 04:52:12;;;;;;;5.82;4.50;;;;;;;7.03;100.00;98075.78;6140671;23;20059;-76
2020/12/11 04:54:38;;;;;;;5.68;3.83;;;;;;;7.04;100.00;98075.44;6115559;23;20370;-76
2020/12/11 04:57:08;;;;;;;7.75;5.00;;;;;;;7.03;100.00;98075.78;6140062;23;20012;-77
2020/12/11 04:59:33;;;;;;;5.80;4.53;;;;;;;7.03;100.00;98067.50;6117210;23;20020;-77
2020/12/11 05:01:59;;;;;;;5.03;4.22;;;;;;;7.02;100.00;98071.38;6140236;23;20008;-77
2020/12/11 05:04:25;;;;;;;7.25;4.63;;;;;;;7.03;100.00;98078.53;6139989;23;20012;-77
2020/12/11 05:06:51;;;;;;;6.65;4.85;;;;;;;7.06;100.00;98077.88;6164827;23;20009;-76
2020/12/11 05:09:17;;;;;;;6.18;4.93;;;;;;;7.04;100.00;98077.38;6139934;23;20005;-76
2020/12/11 05:11:44;;;;;;;6.45;4.75;;;;;;;7.07;100.00;98073.97;6165143;23;20076;-76
2020/12/11 05:14:26;;;;;;;6.32;4.55;;;;;;;7.07;100.00;98073.97;6140281;23;20016;-76
2020/12/11 05:17:00;;;;;;;5.75;4.43;;;;;;;7.08;100.00;98078.34;6164347;23;20033;-76
2020/12/11 05:19:26;;;;;;;7.78;4.90;;;;;;;7.08;100.00;98075.59;6140668;23;20047;-76
2020/12/11 05:21:52;;;;;;;5.88;4.28;;;;;;;7.10;100.00;98085.19;6140950;23;20008;-76
2020/12/11 05:24:17;;;;;;;7.22;4.85;;;;;;;7.10;100.00;98071.38;6139627;23;20072;-77
2020/12/11 05:26:43;;;;;;;6.22;4.75;;;;;;;7.11;100.00;98072.19;6190560;23;20067;-76
2020/12/11 05:29:09;;;;;;;10.45;5.97;;;;;;;7.11;100.00;98067.47;6165043;23;20009;-76
2020/12/11 05:31:34;;;;;;;7.50;5.57;;;;;;;7.13;100.00;98056.06;6163601;23;20316;-76
2020/12/11 05:34:01;;;;;;;10.02;5.90;;;;;;;7.13;100.00;98053.31;6164416;23;20032;-76
2020/12/11 05:36:26;;;;;;;8.43;6.13;;;;;;;7.13;100.00;98050.56;6164604;23;20439;-76
2020/12/11 05:38:52;;;;;;;9.30;6.20;;;;;;;7.13;100.00;98047.78;6140158;23;20008;-76
2020/12/11 05:41:36;;;;;;;7.15;5.40;;;;;;;7.13;100.00;98053.31;6115258;23;20308;-76
2020/12/11 05:44:02;;;;;;;9.32;5.43;;;;;;;7.13;100.00;98051.38;6091255;23;20016;-76
2020/12/11 05:46:29;;;;;;;6.85;5.10;;;;;;;7.11;100.00;98041.81;6139459;23;20327;-76
2020/12/11 05:48:54;;;;;;;8.20;6.13;;;;;;;7.11;100.00;98050.09;6190505;23;20014;-76
2020/12/11 05:51:20;;;;;;;6.80;5.57;;;;;;;7.09;100.00;98041.34;6140004;23;20001;-76
2020/12/11 05:53:46;;;;;;;8.07;5.85;;;;;;;7.09;100.00;98041.34;6164789;23;20005;-76
2020/12/11 05:56:11;;;;;;;7.63;5.65;;;;;;;7.07;100.00;98043.59;6190346;23;20005;-77
2020/12/11 05:58:37;;;;;;;8.95;5.95;;;;;;;7.05;100.00;98052.22;6139658;23;20063;-77
2020/12/11 06:01:02;;;;;;;7.65;5.78;;;;;;;7.05;100.00;98045.88;6139867;23;20814;-76
2020/12/11 06:03:28;;;;;;;7.13;5.40;;;;;;;7.03;100.00;98042.66;6190287;23;20338;-77
2020/12/11 06:05:56;;;;;;;7.18;5.07;;;;;;;7.00;100.00;98033.09;6190452;23;20015;-76
2020/12/11 06:08:21;;;;;;;7.50;5.20;;;;;;;6.98;100.00;98035.34;6139840;23;20029;-77
2020/12/11 06:10:49;;;;;;;7.82;5.53;;;;;;;6.97;100.00;98032.94;6114815;23;20009;-76
2020/12/11 06:13:14;;;;;;;9.48;5.32;;;;;;;6.94;100.00;98032.47;6140626;23;20032;-76
2020/12/11 06:15:43;;;;;;;6.90;5.43;;;;;;;6.92;100.00;98034.72;6164042;23;20400;-76
2020/12/11 06:18:10;;;;;;;12.32;5.55;;;;;;;6.90;100.00;98033.44;6139725;23;20095;-76
2020/12/11 06:20:35;;;;;;;8.85;5.00;;;;;;;6.88;100.00;98036.56;6164321;23;20008;-76
2020/12/11 06:23:20;;;;;;;8.27;5.05;;;;;;;6.87;100.00;98032.16;6139925;23;20066;-76
2020/12/11 06:25:53;;;;;;;6.20;5.05;;;;;;;6.88;100.00;98027.44;6139244;23;20462;-76
2020/12/11 06:28:45;;;;;;;;;;;;;;;6.85;100.00;98031.69;6113834;23;20016;-76
2020/12/11 06:31:20;;;;;;;7.60;5.00;;;;;;;6.86;100.00;98024.22;6136934;23;19904;-77
2020/12/11 06:33:49;;;;;;;9.23;4.82;;;;;;;6.84;100.00;98019.03;6163566;23;20438;-77
2020/12/11 06:36:15;;;;;;;5.97;4.78;;;;;;;6.86;100.00;98024.22;6164811;23;20475;-77
2020/12/11 06:38:54;;;;;;;5.20;4.30;;;;;;;6.86;100.00;98021.47;6139634;23;20013;-77
2020/12/11 06:41:40;;;;;;;8.50;4.97;;;;;;;6.87;100.00;98029.38;6115385;23;20012;-77
2020/12/11 06:44:08;;;;;;;5.10;4.00;;;;;;;6.88;100.00;98025.50;6162777;23;20009;-77
2020/12/11 06:46:34;;;;;;;6.70;4.25;;;;;;;6.89;100.00;98027.13;6163614;23;20096;-77
2020/12/11 06:49:17;;;;;;;7.18;4.30;;;;;;;6.90;100.00;98027.91;6115115;23;20013;-77
2020/12/11 06:51:42;;;;;;;9.15;4.20;;;;;;;6.91;100.00;98016.56;6091926;23;20009;-77
2020/12/11 06:54:08;;;;;;;9.50;4.38;;;;;;;6.94;100.00;98015.09;6163322;23;20009;-77
2020/12/11 06:56:43;;;;;;;12.60;4.18;;;;;;;6.95;100.00;98013.94;6139036;23;20013;-77
2020/12/11 06:59:34;;;;;;;9.15;4.13;;;;;;;6.99;100.00;98011.31;6164499;23;20005;-77
2020/12/11 07:02:02;;;;;;;8.70;3.90;;;;;;;6.99;100.00;98005.81;6190096;23;20005;-77
2020/12/11 07:04:50;;;;;;;6.05;3.92;;;;;;;7.01;100.00;98018.13;6163987;23;20005;-77
2020/12/11 07:07:18;;;;;;;10.90;4.05;;;;;;;7.02;100.00;98013.44;6140320;23;20035;-77
2020/12/11 07:09:46;;;;;;;5.60;3.50;;;;;;;7.04;100.00;98019.44;6115970;23;20012;-77
2020/12/11 07:12:12;;;;;;;8.88;3.67;;;;;;;7.05;100.00;98007.25;6093124;23;20011;-77
2020/12/11 07:14:37;;;;;;;9.07;3.95;;;;;;;7.09;100.00;98002.69;6115881;23;20013;-77
2020/12/11 07:17:03;;;;;;;8.00;3.58;;;;;;;7.10;100.00;98004.28;6139789;23;20501;-77
2020/12/11 07:19:34;;;;;;;10.50;3.30;;;;;;;7.11;100.00;98001.22;6115445;23;20036;-76
2020/12/11 07:22:00;;;;;;;10.20;3.67;;;;;;;7.13;100.00;97998.94;6114689;23;20019;-77
2020/12/11 07:24:29;;;;;;;12.60;3.88;;;;;;;7.14;100.00;98000.56;6114769;23;20001;-77
2020/12/11 07:27:09;;;;;;;12.55;3.70;;;;;;;7.17;100.00;97999.06;6189506;23;20017;-78
2020/12/11 07:29:34;;;;;;;9.82;3.50;;;;;;;7.18;100.00;98005.41;6140095;23;20005;-78
2020/12/11 07:32:00;;;;;;;12.90;4.38;;;;;;;7.21;100.00;98004.72;6162555;23;20335;-77
2020/12/11 07:34:27;;;;;;;9.15;3.75;;;;;;;7.22;100.00;97996.13;6139023;23;20005;-77
2020/12/11 07:36:57;;;;;;;13.25;4.65;;;;;;;7.25;100.00;98000.19;6138857;23;20016;-78
2020/12/11 07:39:23;;;;;;;14.45;4.50;;;;;;;7.25;100.00;97989.94;6139065;23;20043;-77
2020/12/11 07:41:49;;;;;;;12.98;4.95;;;;;;;7.29;100.00;97992.84;6163367;23;20016;-77
2020/12/11 07:44:27;;;;;;;12.48;4.45;;;;;;;7.30;100.00;97975.13;6114929;23;20020;-78
2020/12/11 07:46:56;;;;;;;15.50;4.82;;;;;;;7.32;100.00;97983.88;6138213;23;20013;-77
2020/12/11 07:49:41;;;;;;;14.00;5.70;;;;;;;7.33;100.00;97980.00;6138853;23;20013;-78
2020/12/11 07:52:07;;;;;;;14.98;5.30;;;;;;;7.37;100.00;97980.94;6138874;23;20056;-77
2020/12/11 07:54:34;;;;;;;13.55;5.35;;;;;;;7.37;100.00;97984.50;6163192;23;20020;-78
2020/12/11 07:57:13;;;;;;;18.65;5.53;;;;;;;7.39;100.00;97990.50;6114566;23;20035;-77
2020/12/11 07:59:39;;;;;;;13.27;5.00;;;;;;;7.41;100.00;97990.19;6163522;23;20001;-77
2020/12/11 08:02:05;;;;;;;15.60;4.72;;;;;;;7.44;100.00;97978.47;6138408;23;20004;-77
2020/12/11 08:04:35;;;;;;;15.10;4.85;;;;;;;7.45;100.00;97982.84;6139118;23;20430;-77
2020/12/11 08:07:00;;;;;;;21.55;5.38;;;;;;;7.48;100.00;97976.63;6090977;23;20009;-78
2020/12/11 08:09:33;;;;;;;17.17;4.45;;;;;;;7.52;100.00;97977.59;6113959;23;20440;-78
2020/12/11 08:12:28;;;;;;;11.32;4.13;;;;;;;7.55;100.00;97976.94;6089886;23;20005;-77
2020/12/11 08:14:56;;;;;;;19.85;4.05;;;;;;;7.58;100.00;97970.72;6125160;23;20009;-78
2020/12/11 08:17:22;;;;;;;23.20;4.20;;;;;;;7.62;100.00;97976.38;6138803;23;20108;-77
2020/12/11 08:20:06;;;;;;;20.30;4.20;;;;;;;7.64;100.00;97974.09;6116233;23;20001;-78
2020/12/11 08:22:35;;;;;;;18.77;4.50;;;;;;;7.67;100.00;97965.13;6115761;23;20001;-78
2020/12/11 08:25:24;;;;;;;22.45;3.72;;;;;;;7.71;100.00;97968.03;6114955;23;20077;-78
2020/12/11 08:27:57;;;;;;;18.85;4.05;;;;;;;7.72;100.00;97970.47;6139051;23;20013;-78
2020/12/11 08:30:23;;;;;;;29.45;4.75;;;;;;;7.75;100.00;97966.22;6114413;23;20020;-78
2020/12/11 08:32:54;;;;;;;18.48;3.53;;;;;;;7.77;100.00;97956.44;6139821;23;20012;-78
2020/12/11 08:35:20;;;;;;;22.13;3.65;;;;;;;7.78;100.00;97952.53;6163843;23;20014;-77
2020/12/11 08:37:58;;;;;;;19.33;4.55;;;;;;;7.80;100.00;97949.41;6113802;23;20009;-77
2020/12/11 08:40:24;;;;;;;24.70;4.57;;;;;;;7.83;100.00;97952.31;6114233;23;20008;-78
2020/12/11 08:51:04;;;;;;;26.73;3.72;;;;;;;7.93;100.00;97933.69;6142278;23;20009;-78
2020/12/11 08:53:42;;;;;;;22.95;3.80;;;;;;;7.94;100.00;97927.84;6115064;23;20430;-78
2020/12/11 08:56:11;;;;;;;28.88;4.20;;;;;;;7.96;100.00;97924.72;6165258;23;20063;-78
2020/12/11 08:58:37;;;;;;;28.25;4.65;;;;;;;7.98;100.00;97922.44;6089784;23;20044;-77
2020/12/11 09:01:04;;;;;;;25.23;4.30;;;;;;;8.01;100.00;97921.75;6189212;23;20009;-77
2020/12/11 09:03:30;;;;;;;21.48;3.70;;;;;;;8.04;100.00;97921.88;6163097;23;20084;-77
2020/12/11 09:05:56;;;;;;;27.55;4.57;;;;;;;8.06;100.00;97921.56;6189899;23;20009;-77
2020/12/11 09:08:21;;;;;;;25.25;4.18;;;;;;;8.10;100.00;97916.16;6165225;23;20005;-77
2020/12/11 09:10:47;;;;;;;32.50;4.30;;;;;;;8.13;100.00;97921.78;6115212;23;20393;-77
2020/12/11 09:13:13;;;;;;;28.27;4.57;;;;;;;8.14;100.00;97915.13;6140151;23;20017;-78
2020/12/11 09:15:38;;;;;;;25.95;5.10;;;;;;;8.18;100.00;97923.53;6164535;23;20016;-77
2020/12/11 09:18:04;;;;;;;29.17;4.82;;;;;;;8.20;100.00;97924.81;6164737;23;20005;-77
2020/12/11 09:20:30;;;;;;;27.05;4.55;;;;;;;8.23;100.00;97923.31;6115674;23;20465;-77
2020/12/11 09:22:55;;;;;;;25.15;3.63;;;;;;;8.24;100.00;97920.22;6164376;23;20008;-77
2020/12/11 09:25:21;;;;;;;28.27;4.60;;;;;;;8.28;100.00;97915.63;6164444;23;20009;-77
2020/12/11 09:27:47;;;;;;;29.55;3.67;;;;;;;8.33;100.00;97916.53;6108097;23;20029;-77
2020/12/11 09:30:31;;;;;;;30.80;4.18;;;;;;;8.36;100.00;97913.09;6080408;23;20013;-77
2020/12/11 09:35:24;;;;;;;29.50;4.20;;;;;;;8.43;100.00;97910.59;6105728;23;20014;-77
2020/12/11 09:37:50;;;;;;;32.70;5.20;;;;;;;8.45;100.00;97917.41;6106049;23;20511;-77
2020/12/11 09:40:30;;;;;;;30.58;4.82;;;;;;;8.50;100.00;97921.94;6081930;23;20088;-77
2020/12/11 09:45:35;;;;;;;24.50;3.90;;;;;;;8.57;100.00;97924.13;6105463;23;20010;-77
2020/12/11 09:48:16;;;;;;;26.10;5.03;;;;;;;8.62;100.00;97923.91;6110576;23;20013;-74
2020/12/11 09:50:48;;;;;;;33.13;4.80;;;;;;;8.69;100.00;97929.66;6109088;23;20502;-77
2020/12/11 09:55:47;;;;;;;24.70;4.20;;;;;;;8.76;100.00;97938.22;6129684;23;19916;-77
2020/12/11 09:58:13;;;;;;;25.15;4.28;;;;;;;8.78;100.00;97935.91;6082530;23;20041;-77
2020/12/11 10:00:41;;;;;;;17.83;3.40;;;;;;;8.79;100.00;97926.44;6081939;23;20014;-77
2020/12/11 10:03:10;;;;;;;21.08;4.25;;;;;;;8.84;100.00;97939.25;6082937;23;20002;-77
2020/12/11 10:05:36;;;;;;;19.17;3.38;;;;;;;8.85;100.00;97927.03;6130092;23;20005;-77
2020/12/11 10:08:01;;;;;;;18.98;3.75;;;;;;;8.88;100.00;97931.88;6154299;23;20432;-77
2020/12/11 10:10:27;;;;;;;21.10;3.70;;;;;;;8.91;100.00;97931.16;6129445;23;20482;-77
2020/12/11 10:12:53;;;;;;;28.48;4.13;;;;;;;8.94;100.00;97936.00;6105531;23;20014;-77
2020/12/11 10:15:22;;;;;;;22.60;3.88;;;;;;;8.98;100.00;97933.38;6130703;23;20066;-77
2020/12/11 10:17:49;;;;;;;21.00;3.08;;;;;;;9.02;100.00;97937.06;6105721;23;20009;-77
2020/12/11 10:20:20;;;;;;;21.58;3.53;;;;;;;9.04;100.00;97930.03;6130364;23;20013;-77
2020/12/11 10:22:49;;;;;;;20.05;3.60;;;;;;;9.08;100.00;97927.34;6129200;23;20419;-77
2020/12/11 10:25:18;;;;;;;22.48;3.50;;;;;;;9.11;100.00;97929.44;6105252;23;20013;-77
2020/12/11 10:27:43;;;;;;;21.23;4.63;;;;;;;9.13;100.00;97933.47;6125926;23;20022;-77
2020/12/11 10:30:09;;;;;;;21.63;3.60;;;;;;;9.17;100.00;97920.56;6128796;23;20042;-77
2020/12/11 10:32:34;;;;;;;19.65;3.88;;;;;;;9.22;100.00;97913.16;6105003;23;20013;-77
2020/12/11 10:35:00;;;;;;;22.25;4.57;;;;;;;9.26;100.00;97914.09;6081182;23;20313;-77
2020/12/11 10:37:25;;;;;;;21.77;3.95;;;;;;;9.31;100.00;97916.63;6081423;23;20009;-77
2020/12/11 10:39:51;;;;;;;26.60;4.03;;;;;;;9.34;100.00;97921.47;6130276;23;20009;-77
2020/12/11 10:42:17;;;;;;;20.98;4.43;;;;;;;9.36;100.00;97916.34;6081631;23;20331;-77
2020/12/11 10:44:42;;;;;;;21.55;3.40;;;;;;;9.39;100.00;97921.22;6081606;23;20334;-77
2020/12/11 10:47:08;;;;;;;22.42;3.80;;;;;;;9.42;100.00;97916.91;6081027;23;20427;-77
2020/12/11 10:49:34;;;;;;;18.88;4.10;;;;;;;9.44;100.00;97906.31;6056941;23;20013;-77
2020/12/11 10:52:00;;;;;;;17.35;2.97;;;;;;;9.46;100.00;97904.81;6081598;23;20081;-77
2020/12/11 10:54:27;;;;;;;18.73;3.67;;;;;;;9.48;100.00;97899.72;6080796;23;20331;-77
2020/12/11 10:56:53;;;;;;;18.15;4.32;;;;;;;9.52;100.00;97897.84;6129200;23;20020;-76
2020/12/11 10:59:19;;;;;;;27.30;4.80;;;;;;;9.56;100.00;97890.47;6081196;23;20010;-76
2020/12/11 11:01:44;;;;;;;19.70;4.07;;;;;;;9.61;100.00;97893.00;6129424;23;20489;-77
2020/12/11 11:04:10;;;;;;;18.88;3.58;;;;;;;9.67;100.00;97895.50;6105453;23;20367;-77
2020/12/11 11:06:42;;;;;;;26.13;4.15;;;;;;;9.70;100.00;97911.44;6129230;23;20084;-77
2020/12/11 11:11:44;;;;;;;20.98;4.25;;;;;;;9.83;100.00;97902.75;6130822;23;20006;-77
2020/12/11 11:22:32;;;;;;;25.95;4.18;;;;;;;9.91;100.00;97894.59;6108233;23;20034;-77
2020/12/11 11:27:48;;;;;;;30.10;5.05;;;;;;;9.95;100.00;97895.53;6108748;23;20014;-77
2020/12/11 11:30:18;;;;;;;20.10;3.78;;;;;;;9.95;100.00;97895.53;6083104;23;20037;-77
2020/12/11 11:32:44;;;;;;;23.83;3.88;;;;;;;9.96;100.00;97900.69;6128554;23;20424;-77
2020/12/11 11:35:10;;;;;;;20.08;3.40;;;;;;;9.94;100.00;97880.84;6081004;23;20037;-78
2020/12/11 11:37:35;;;;;;;24.02;4.50;;;;;;;9.95;100.00;97890.78;6104682;23;20010;-77
2020/12/11 11:40:01;;;;;;;21.08;3.78;;;;;;;9.97;100.00;97888.47;6104624;23;20014;-73
2020/12/11 11:42:30;;;;;;;30.88;5.60;;;;;;;9.97;100.00;97891.25;6128799;23;20010;-78
2020/12/11 11:47:21;;;;;;;24.85;4.70;;;;;;;9.99;100.00;97883.34;6103856;23;20017;-77
2020/12/11 11:52:23;;;;;;;23.35;4.20;;;;;;;10.04;100.00;97876.75;6081630;23;20010;-77
2020/12/11 11:54:49;;;;;;;26.35;4.32;;;;;;;10.05;100.00;97870.03;6083010;23;20010;-77
2020/12/11 11:57:14;;;;;;;25.08;4.20;;;;;;;10.08;100.00;97861.00;6080835;23;20021;-77
2020/12/11 11:59:40;;;;;;;24.75;4.63;;;;;;;10.07;100.00;97862.97;6129497;23;20006;-77
2020/12/11 12:02:32;;;;;;;24.10;4.38;;;;;;;10.08;100.00;97866.56;6080108;23;20009;-79
2020/12/11 12:04:57;;;;;;;19.63;3.80;;;;;;;10.09;100.00;97872.94;6125745;23;20017;-78
2020/12/11 12:07:23;;;;;;;32.47;4.03;;;;;;;10.07;100.00;97871.31;6104276;23;20018;-78